Weather observations for the past three days for
Scott Municipal Airport
Metric (Imperial)
Date Time (edt) Wind (kph) Vis. (km) Weather Sky Cond. Temperature (ºC) Relative Humidity Wind Chill (°C) Heat Index (°C) Pressure Precipitation (cm)
Air Dwpt 6 hour altimeter (cm) sea level (mb) 1 hr 3 hr 6 hr
Max. Min.
09 09:35 SW 11 16.09 A Few Clouds FEW100 16 11 72% 75.84 0.0
09 09:15 SW 15 16.09 Partly Cloudy SCT100 15 11 77% 75.82 0.0
09 08:55 SW 11 16.09 Fair CLR 14 10 77% 75.84 0.0
09 08:35 SW 13 16.09 Fair CLR 13 10 82% 75.82 0.0
09 08:15 SW 13 16.09 A Few Clouds FEW042 13 9 77% 75.84 0.0
09 07:55 Calm 16.09 Mostly Cloudy BKN042 11 9 88% 75.84 0.0
09 07:35 S 7 16.09 Partly Cloudy SCT044 10 8 88% 9 75.84 0.0
09 07:15 SW 6 16.09 A Few Clouds FEW044 8 7 93% 75.82 0.0
09 06:55 S 6 16.09 Mostly Cloudy BKN043 9 8 94% 75.84 0.0
09 06:35 Calm 16.09 Overcast OVC041 9 8 94% 75.82 0.0
09 06:15 S 6 16.09 Partly Cloudy SCT040 SCT110 9 7 87% 75.84 0.0
09 05:55 Calm 16.09 Fair CLR 9 7 87% 75.84 0.0
09 05:35 Calm 16.09 Fair CLR 10 8 88% 75.87 0.0
09 05:15 Calm 16.09 A Few Clouds FEW120 10 7 82% 75.84 0.0
09 04:55 Calm 16.09 A Few Clouds FEW120 9 7 87% 75.82 0.0
09 04:35 Calm 16.09 Fair CLR 8 7 93% 75.82 0.0
09 04:15 Calm 16.09 Fair CLR 9 7 87% 75.82 0.0
09 03:55 SW 7 16.09 Fair CLR 9 7 87% 8 75.82 0.0
09 03:35 S 7 16.09 Fair CLR 9 6 82% 8 75.82 0.0
09 03:15 SW 6 16.09 Fair CLR 10 6 76% 75.82 0.0
09 02:55 Calm 16.09 A Few Clouds FEW031 FEW037 10 6 76% 75.84 0.0
09 02:35 SW 7 16.09 Fair CLR 10 6 76% 9 75.87 0.0
09 02:15 SW 7 16.09 Fair CLR 10 6 76% 9 75.87 0.0
09 01:55 SW 9 16.09 A Few Clouds FEW034 11 6 72% 75.9 0.0
09 01:35 Calm 16.09 Fair CLR 11 6 72% 75.9 0.0
09 01:15 S 7 16.09 Fair CLR 11 5 67% 75.9 0.0
09 00:55 S 7 16.09 Fair CLR 11 5 67% 75.9 0.0
09 00:35 Calm 16.09 Fair CLR 12 5 63% 75.92 0.0
09 00:15 Calm 16.09 Fair CLR 12 5 63% 75.95 0.0
08 23:55 Calm 16.09 Fair CLR 12 6 67% 75.95 0.0
08 23:35 Calm 16.09 Fair CLR 12 6 67% 75.95 0.0
08 23:15 Calm 16.09 Fair CLR 13 5 59% 75.95 0.0
08 22:55 Calm 16.09 Fair CLR 13 5 59% 75.95 0.0
08 22:35 Calm 16.09 A Few Clouds FEW043 13 6 63% 75.97 0.0
08 22:15 Calm 16.09 Fair CLR 13 6 63% 75.95 0.0
08 21:55 Calm 16.09 Fair CLR 13 6 63% 75.95 0.0
08 21:35 Calm 16.09 Fair CLR 13 6 63% 75.95 0.0
08 21:15 Calm 16.09 Fair CLR 14 6 59% 75.95 0.0
08 20:55 Calm 16.09 Fair CLR 15 5 51% 75.95 0.0
08 20:35 SW 6 16.09 Fair CLR 16 5 48% 75.95 0.0
08 20:15 S 7 16.09 Fair CLR 17 5 45% 75.95 0.0
08 19:55 S 15 16.09 Fair CLR 18 4 40% 75.95 0.0
08 19:35 S 9 16.09 Fair CLR 19 4 37% 75.92 0.0
08 19:15 S 11 16.09 Fair CLR 20 3 33% 75.92 0.0
08 18:55 S 11 16.09 Fair CLR 20 3 33% 75.95 0.0
08 18:35 S 13 16.09 Fair CLR 20 2 30% 75.97 0.0
08 18:15 S 15 16.09 Fair CLR 20 2 30% 75.97 0.0
08 17:55 SW 13 16.09 Fair CLR 21 2 29% 75.97 0.0
08 17:35 S 15 16.09 Fair CLR 20 2 30% 75.97 0.0
08 17:15 S 13 16.09 Fair CLR 20 1 28% 75.97 0.0
08 16:55 Vrbl 11 16.09 Fair CLR 20 1 28% 75.97 0.0
08 16:35 S 13 G 28 16.09 Fair CLR 20 0 26% 76 0.0
08 16:15 Calm 16.09 Fair CLR 20 -1 24% 76 0.0
08 15:55 Vrbl 11 16.09 Fair CLR 20 -1 24% 76.02 0.0
08 15:35 S 13 16.09 Fair CLR 20 0 26% 76.07 0.0
08 15:15 SW 17 16.09 Fair CLR 20 -1 24% 76.1 0.0
08 14:55 SW 13 16.09 Fair CLR 20 1 28% 76.12 0.0
08 14:35 S 11 16.09 Fair CLR 19 2 32% 76.15 0.0
08 14:15 Vrbl 6 G 19 16.09 Fair CLR 19 1 30% 76.17 0.0
08 13:55 Vrbl 9 16.09 Fair CLR 19 1 30% 76.17 0.0
08 13:35 S 11 16.09 Fair CLR 18 1 32% 76.2 0.0
08 13:15 S 7 G 19 16.09 Fair CLR 18 1 32% 76.23 0.0
08 12:55 Calm 16.09 Fair CLR 17 0 32% 76.25 0.0
08 12:35 Vrbl 7 16.09 Fair CLR 17 0 32% 76.28 0.0
08 12:15 Calm 16.09 Fair CLR 17 2 37% 76.3 0.0
08 11:55 Vrbl 6 16.09 Fair CLR 17 3 39% 76.33 0.0
08 11:35 SW 6 16.09 Fair CLR 16 1 36% 76.35 0.0
08 11:15 Calm 16.09 Fair CLR 15 1 39% 76.38 0.0
08 10:55 Vrbl 9 16.09 Fair CLR 15 3 45% 76.38 0.0
08 10:35 SW 9 16.09 Fair CLR 13 3 51% 76.38 0.0
08 10:15 S 9 16.09 Fair CLR 13 4 55% 76.38 0.0
08 09:55 S 7 16.09 Fair CLR 11 5 67% 76.38 0.0
08 09:35 SW 9 16.09 Fair CLR 10 6 76% 9 76.38 0.0
08 09:15 SW 6 16.09 Fair CLR 9 6 82% 76.35 0.0
08 08:55 Calm 16.09 Fair CLR 7 6 93% 76.38 0.0
08 08:35 Calm 16.09 Fair CLR 6 5 93% 76.35 0.0
08 08:15 Calm 16.09 Fair CLR 5 5 100% 76.33 0.0
08 07:50 Calm 16.09 Fair CLR 4 4 100% 76.33 0.0
08 07:35 Calm 16.09 Fair CLR 3 3 100% 76.3 0.0
08 07:15 Calm 14.48 Fair CLR 3 3 100% 76.3 0.0
08 06:55 Calm 16.09 Fair CLR 3 3 100% 76.28 0.0
08 06:35 Calm 14.48 Fair CLR 3 3 100% 76.25 0.0
08 06:15 Calm 2.01 Fog/Mist CLR 3 3 100% 76.25 0.0
08 05:55 Calm 2.82 Fog/Mist CLR 3 3 100% 76.23 0.0
08 05:35 Calm 1.61 Fog/Mist SCT035 3 3 100% 76.23 0.0
08 05:15 Calm 4.02 Fog/Mist FEW033 3 3 100% 76.23 0.0
08 04:55 Calm 4.83 Fog/Mist CLR 4 4 100% 76.23 0.0
08 04:35 Calm 12.87 Fair CLR 4 4 100% 76.23 0.0
08 04:15 Calm 16.09 Fair CLR 4 4 100% 76.23 0.0
08 03:55 Calm 16.09 Fair CLR 4 4 100% 76.23 0.0
08 03:35 Calm 16.09 Fair CLR 4 4 100% 76.23 0.0
08 03:10 N 7 16.09 Fair CLR 5 5 100% 4 76.23 0.0
08 02:55 Calm 16.09 Fair CLR 5 5 100% 76.25 0.0
08 02:35 Calm 16.09 Fair CLR 5 5 100% 76.25 0.0
08 02:15 Calm 16.09 Fair CLR 5 5 100% 76.25 0.0
08 01:55 Calm 16.09 Fair CLR 5 5 100% 76.23 0.0
08 01:35 Calm 16.09 A Few Clouds FEW045 5 5 100% 76.25 0.0
08 01:15 N 7 16.09 Partly Cloudy SCT044 SCT049 5 4 93% 4 76.23 0.0
08 00:55 Calm 16.09 Mostly Cloudy BKN047 6 5 93% 76.25 0.0
08 00:35 Calm 16.09 Mostly Cloudy BKN048 BKN055 6 5 93% 76.28 0.0
08 00:15 Calm 16.09 Mostly Cloudy BKN049 6 5 93% 76.25 0.0
07 23:55 Calm 16.09 Partly Cloudy SCT050 6 6 100% 76.23 0.0
07 23:35 Calm 16.09 Partly Cloudy FEW050 SCT055 7 6 93% 76.23 0.0
07 23:15 Calm 16.09 Partly Cloudy SCT050 8 5 82% 76.23 0.0
07 22:55 Calm 16.09 Partly Cloudy SCT049 8 6 87% 76.23 0.0
07 22:35 Calm 16.09 Partly Cloudy SCT050 8 5 82% 76.23 0.0
07 22:15 Calm 16.09 A Few Clouds FEW047 9 5 76% 76.2 0.0
07 21:55 Calm 16.09 Partly Cloudy FEW044 SCT050 9 5 76% 76.17 0.0
07 21:35 Calm 16.09 Partly Cloudy FEW043 SCT049 10 5 71% 76.15 0.0
07 21:15 NW 6 16.09 Partly Cloudy SCT049 12 3 54% 76.12 0.0
07 20:55 NW 7 16.09 Fair CLR 12 3 54% 76.12 0.0
07 20:35 N 7 16.09 Fair CLR 13 3 51% 76.1 0.0
07 20:15 N 7 16.09 Fair CLR 13 4 55% 76.07 0.0
07 19:55 N 9 16.09 Fair CLR 14 3 48% 76.07 0.0
07 19:35 Vrbl 9 16.09 Fair CLR 15 3 45% 76.07 0.0
07 19:15 NW 7 16.09 Fair CLR 16 3 42% 76.05 0.0
07 18:55 N 15 16.09 Fair CLR 16 3 42% 76.07 0.0
07 18:35 NW 15 16.09 Fair CLR 16 3 42% 76.07 0.0
07 18:15 N 13 16.09 A Few Clouds FEW055 16 3 42% 76.07 0.0
07 17:55 Vrbl 6 16.09 Partly Cloudy SCT050 17 4 42% 76.05 0.0
07 17:35 N 19 16.09 Partly Cloudy SCT050 17 4 42% 76.05 0.0
07 17:15 NW 17 G 30 16.09 Mostly Cloudy BKN050 17 4 42% 76.02 0.0
07 16:55 N 17 G 28 16.09 Mostly Cloudy BKN050 BKN055 17 4 42% 76.02 0.0
07 16:35 N 17 G 26 16.09 Mostly Cloudy BKN050 BKN060 17 5 45% 76 0.0
07 16:15 NW 13 16.09 Mostly Cloudy BKN050 BKN060 16 4 45% 76.02 0.0
07 15:55 N 19 16.09 Partly Cloudy SCT050 17 5 45% 76.02 0.0
07 15:35 Vrbl 11 16.09 A Few Clouds FEW048 17 5 45% 76.05 0.0
07 15:15 Vrbl 9 G 20 16.09 Partly Cloudy SCT045 18 5 43% 76.05 0.0
07 14:55 Vrbl 9 G 20 14.48 Partly Cloudy SCT045 16 5 48% 76.05 0.0
07 14:35 Vrbl 9 16.09 Mostly Cloudy BKN042 BKN048 16 6 52% 76.05 0.0
07 14:15 NE 13 16.09 Mostly Cloudy BKN040 BKN047 15 6 55% 76.07 0.0
07 13:55 N 19 16.09 Mostly Cloudy BKN039 BKN045 16 6 52% 76.07 0.0
07 13:35 N 7 G 19 16.09 Mostly Cloudy BKN038 BKN045 15 6 55% 76.1 0.0
07 13:15 Calm 16.09 Partly Cloudy SCT036 15 6 55% 76.1 0.0
07 12:55 Vrbl 9 G 28 16.09 Partly Cloudy SCT035 15 6 55% 76.12 0.0
07 12:35 NE 13 G 30 16.09 Mostly Cloudy BKN035 15 6 55% 76.12 0.0
07 12:15 N 17 G 30 16.09 Mostly Cloudy BKN034 14 6 59% 76.12 0.0
07 11:55 N 15 G 24 16.09 Mostly Cloudy BKN030 BKN037 15 7 59% 76.1 0.0
07 11:35 N 19 16.09 Mostly Cloudy BKN028 15 7 59% 76.1 0.0
07 11:15 N 17 16.09 Mostly Cloudy BKN028 14 7 63% 76.1 0.0
07 10:55 N 17 G 30 16.09 Partly Cloudy SCT026 13 6 63% 76.07 0.0
07 10:35 NE 19 16.09 A Few Clouds FEW023 13 7 67% 76.07 0.0
07 10:15 Vrbl 9 G 24 16.09 Partly Cloudy FEW022 SCT041 SCT050 12 8 77% 76.07 0.0
07 09:55 NE 11 16.09 Overcast OVC040 11 8 82% 76.07 0.0
07 09:35 Vrbl 11 16.09 Overcast OVC040 11 9 88% 76.1 0.0
07 09:15 N 11 16.09 Overcast OVC040 10 9 94% 9 76.07 0.0
07 08:55 N 13 16.09 Overcast OVC039 10 9 94% 8 76.1 0.0
07 08:35 N 13 16.09 Overcast OVC037 10 9 94% 8 76.07 0.0
07 08:15 N 11 16.09 Overcast OVC036 10 9 94% 9 76.07 0.0
07 07:55 N 7 16.09 Overcast OVC035 10 9 94% 9 76.05 0.0
07 07:35 N 15 16.09 Overcast FEW008 OVC035 10 9 94% 8 76.02 0.0
07 07:15 N 15 16.09 Overcast OVC034 10 9 94% 8 76 0.0
07 06:55 N 11 16.09 Overcast OVC033 10 10 100% 9 76 0.0
07 06:35 N 9 16.09 Overcast OVC033 10 10 100% 9 76 0.0
07 06:15 N 7 16.09 Overcast FEW029 BKN033 OVC042 10 10 100% 9 76 0.0
07 05:55 N 11 16.09 Overcast BKN028 OVC034 10 10 100% 9 76 0.0
07 05:35 N 9 16.09 Overcast OVC029 10 10 100% 9 75.97 0.0
07 05:15 N 13 16.09 Overcast OVC029 10 10 100% 8 76.02 0.0
07 04:55 N 13 16.09 Overcast FEW008 OVC029 11 10 94% 75.97 0.0
07 04:35 N 9 16.09 Overcast FEW007 OVC030 11 11 100% 75.97 0.0
07 04:15 N 11 16.09 Overcast FEW007 FEW010 OVC028 11 11 100% 76 0.0
07 03:55 Calm 16.09 Overcast SCT009 SCT013 OVC028 11 11 100% 76 0.0
07 03:35 N 9 16.09 Overcast BKN009 BKN014 OVC028 11 11 100% 76 0.0
07 03:15 N 9 16.09 Overcast BKN008 OVC013 11 11 100% 76 0.0
07 02:55 N 11 16.09 Overcast BKN006 OVC011 11 11 100% 76 0.0
07 02:35 N 9 16.09 Overcast BKN006 BKN013 OVC026 11 11 100% 76 0.0
07 02:15 N 7 16.09 Overcast BKN007 BKN015 OVC025 11 11 100% 76.02 0.0
07 01:55 N 9 9.66 Fog/Mist FEW008 OVC025 11 11 100% 76.05 0.0 0.03
07 01:35 N 11 16.09 Overcast OVC024 11 11 100% 76.07 0.0
07 01:15 N 6 16.09 Overcast OVC023 11 11 100% 76.07 0.0
07 00:55 N 7 16.09 Overcast BKN018 OVC022 11 11 100% 76.07 0.0
07 00:35 N 9 16.09 Overcast FEW006 BKN010 OVC016 12 11 94% 76.05 0.0
07 00:15 N 11 16.09 Overcast BKN006 OVC010 12 12 100% 76.07 0.0
06 23:55 N 7 16.09 Overcast BKN006 BKN010 OVC016 12 12 100% 76.05 0.0 0.03
06 23:30 N 13 16.09 Overcast SCT006 BKN011 OVC016 12 12 100% 76.02 0.0
06 23:15 N 9 12.87 Overcast SCT005 OVC011 12 12 100% 76.07 0.0
06 22:55 N 9 4.83 Fog/Mist BKN004 OVC009 12 12 100% 76.1 0.0 0.05
06 22:35 NW 13 12.87 Overcast OVC004 12 12 100% 76.15 0.0
06 22:15 NW 11 16.09 Overcast BKN005 BKN009 OVC014 12 12 100% 76.07 0.0
06 21:55 Calm 16.09 Overcast BKN004 OVC014 12 12 100% 76.02 0.0
06 21:35 Vrbl 7 16.09 Overcast OVC004 12 12 100% 75.97 0.0
06 21:15 Calm 16.09 Overcast OVC005 12 12 100% 76 0.0
06 20:55 Calm 16.09 Overcast OVC006 12 12 100% 76.02 0.0 0.03
06 20:35 Calm 12.87 Overcast BKN006 OVC010 12 12 100% 76.07 0.0
06 20:15 N 11 14.48 Overcast BKN006 BKN010 OVC013 12 12 100% 76.1 0.0
06 19:55 NW 7 16.09 Overcast OVC008 12 12 100% 76.05 0.0 0.03
06 19:35 N 9 16.09 Overcast OVC009 12 12 100% 76.02 0.0
06 19:15 NW 11 16.09 Overcast SCT005 BKN009 OVC016 13 13 100% 76.02 0.0
06 18:55 Calm 12.87 Overcast BKN006 OVC009 12 12 100% 75.97 0.0
06 18:35 Vrbl 7 3.22 Fog/Mist OVC004 12 12 100% 76 0.0
06 18:15 N 19 16.09 Overcast OVC004 13 13 100% 76 0.0
06 17:55 N 17 6.44 Fog/Mist OVC004 13 13 100% 75.95 0.0
06 17:35 N 17 4.83 Fog/Mist OVC004 13 13 100% 76 0.0
06 17:15 N 19 11.27 Overcast OVC004 14 14 100% 75.95 0.0
06 16:55 N 11 16.09 Overcast OVC004 15 15 100% 75.9 0.0
06 16:35 N 17 14.48 Overcast OVC004 15 15 100% 75.87 0.0
06 16:15 N 17 11.27 Overcast BKN003 OVC008 15 15 100% 75.9 0.0
06 15:55 N 15 14.48 Overcast OVC005 16 16 100% 75.95 0.0
06 15:35 N 11 14.48 Overcast BKN005 BKN015 OVC024 17 17 100% 75.97 0.0
06 15:15 N 17 16.09 Overcast FEW016 BKN024 OVC041 20 17 83% 75.9 0.0
06 14:55 W 9 16.09 Overcast FEW016 BKN031 OVC042 20 17 83% 75.9 0.0
06 14:35 W 9 16.09 Overcast SCT031 BKN041 OVC060 21 17 78% 75.9 0.0
06 14:15 W 13 16.09 Mostly Cloudy FEW016 SCT036 BKN060 21 18 83% 75.9 0.0
06 13:55 SW 13 16.09 Overcast FEW015 BKN026 OVC065 20 18 88% 75.9 0.0
06 13:35 W 11 16.09 Overcast SCT012 BKN016 OVC028 20 18 88% 75.92 0.0
06 13:15 SW 9 16.09 Overcast SCT015 BKN022 OVC033 20 18 88% 75.92 0.0
06 12:55 SW 11 16.09 Mostly Cloudy FEW014 SCT021 BKN027 20 18 88% 75.9 0.0
06 12:35 SW 13 16.09 Overcast FEW020 OVC029 19 18 94% 75.92 0.0
06 12:10 SW 13 G 22 16.09 Overcast BKN012 BKN017 OVC027 18 18 100% 75.92 0.0
06 11:55 SW 19 16.09 Overcast BKN010 OVC014 18 18 100% 75.92 0.0
06 11:35 SW 13 G 22 16.09 Mostly Cloudy BKN010 BKN015 BKN120 18 18 100% 75.92 0.0
06 11:15 SW 13 G 24 14.48 Partly Cloudy FEW016 SCT120 18 18 100% 75.84 0.0
06 10:55 S 15 G 26 9.66 Fog/Mist SCT017 BKN022 BKN042 17 17 100% 75.82 0.0 0.08
06 10:35 SW 17 12.87 Overcast BKN021 OVC030 17 17 100% 75.9 0.0
06 10:15 S 17 G 26 14.48 Overcast OVC031 17 17 100% 75.9 0.0
06 09:55 SW 19 9.66 Fog/Mist FEW009 SCT025 BKN032 17 17 100% 75.9 0.0 0.05
Date Time (edt) Wind (kph) Vis. (km) Weather Sky Cond. Air Dwpt Max. Min. Relative Humidity Wind Chill (°C) Heat Index (°C) altimeter (cm) sea level (mb) 1 hr 3 hr 6 hr
6 hour
Temperature (ºC) Pressure Precipitation (cm)